createdAt,value
2022-12-11T00:02:14.712Z,97600.13
2022-12-11T00:04:41.623Z,97595.73
2022-12-11T00:07:08.661Z,97592.45
2022-12-11T00:09:43.712Z,97584.12
2022-12-11T00:12:12.564Z,97575.44
2022-12-11T00:14:39.281Z,97583.17
2022-12-11T00:17:17.277Z,97585.98
2022-12-11T00:20:13.329Z,97582.23
2022-12-11T00:22:47.515Z,97568.95
2022-12-11T00:25:14.191Z,97560.00
2022-12-11T00:27:50.087Z,97555.08
2022-12-11T00:30:17.015Z,97564.58
2022-12-11T00:32:43.974Z,97562.19
2022-12-11T00:35:10.933Z,97556.11
2022-12-11T00:37:39.444Z,97560.78
2022-12-11T00:42:57.277Z,97566.98
2022-12-11T00:45:25.892Z,97573.84
2022-12-11T00:48:07.985Z,97575.50
2022-12-11T00:50:39.852Z,97572.94
2022-12-11T00:53:07.311Z,97567.92
2022-12-11T00:55:45.689Z,97557.92
2022-12-11T00:58:18.346Z,97559.98
2022-12-11T01:01:29.107Z,97561.02
2022-12-11T01:04:34.065Z,97565.51
2022-12-11T01:07:00.791Z,97562.61
2022-12-11T01:09:49.847Z,97566.08
2022-12-11T01:12:18.378Z,97565.33
2022-12-11T01:14:50.363Z,97553.05
2022-12-11T01:17:17.135Z,97552.43
2022-12-11T01:19:43.921Z,97547.83
2022-12-11T01:22:12.384Z,97539.25
2022-12-11T01:24:45.557Z,97535.80
2022-12-11T01:27:12.190Z,97521.80
2022-12-11T01:30:12.822Z,97526.86
2022-12-11T01:32:39.719Z,97531.49
2022-12-11T01:35:11.255Z,97533.06
2022-12-11T01:37:38.838Z,97525.16
2022-12-11T01:40:41.595Z,97526.91
2022-12-11T01:43:21.233Z,97528.56
2022-12-11T01:45:52.749Z,97529.73
2022-12-11T01:48:39.239Z,97525.36
2022-12-11T01:51:45.543Z,97513.31
2022-12-11T01:54:15.615Z,97505.94
2022-12-11T01:56:48.847Z,97503.41
2022-12-11T01:59:42.440Z,97492.54
2022-12-11T02:02:32.710Z,97494.58
2022-12-11T02:05:02.415Z,97469.66
2022-12-11T02:07:36.664Z,97467.63
2022-12-11T02:10:09.588Z,97455.80
2022-12-11T02:13:01.163Z,97454.94
2022-12-11T02:16:13.594Z,97455.08
2022-12-11T02:20:05.690Z,97453.90
2022-12-11T02:22:56.484Z,97446.21
2022-12-11T02:26:21.418Z,97442.21
2022-12-11T02:29:06.048Z,97445.52
2022-12-11T02:31:47.135Z,97439.88
2022-12-11T02:34:19.781Z,97434.25
2022-12-11T02:36:56.685Z,97434.46
2022-12-11T02:39:26.418Z,97435.20
2022-12-11T02:41:55.928Z,97434.35
2022-12-11T02:44:27.457Z,97432.63
2022-12-11T02:47:01.891Z,97426.45
2022-12-11T02:49:33.528Z,97424.25
2022-12-11T02:52:12.381Z,97411.64
2022-12-11T02:54:43.332Z,97410.39
2022-12-11T02:57:45.271Z,97415.05
2022-12-11T03:00:20.406Z,97424.31
2022-12-11T03:02:54.308Z,97420.88
2022-12-11T03:05:22.683Z,97428.31
2022-12-11T03:07:52.057Z,97416.97
2022-12-11T03:10:19.634Z,97405.85
2022-12-11T03:12:54.910Z,97400.61
2022-12-11T03:15:33.305Z,97412.20
2022-12-11T03:18:39.152Z,97411.52
2022-12-11T03:21:37.945Z,97426.11
2022-12-11T03:24:07.409Z,97441.08
2022-12-11T03:26:42.448Z,97417.59
2022-12-11T03:29:19.559Z,97410.06
2022-12-11T03:31:56.474Z,97415.93
2022-12-11T03:34:44.602Z,97413.20
2022-12-11T03:37:13.603Z,97403.42
2022-12-11T03:39:51.746Z,97392.32
2022-12-11T03:42:21.570Z,97381.44
2022-12-11T03:44:51.664Z,97374.72
2022-12-11T03:47:25.180Z,97364.38
2022-12-11T03:49:57.789Z,97362.59
2022-12-11T03:52:27.523Z,97362.45
2022-12-11T03:54:59.260Z,97358.77
2022-12-11T03:57:30.927Z,97360.80
2022-12-11T03:59:59.486Z,97361.11
2022-12-11T04:02:28.289Z,97363.45
2022-12-11T04:04:55.280Z,97359.23
2022-12-11T04:07:22.683Z,97357.27
2022-12-11T04:09:53.002Z,97354.36
2022-12-11T04:12:20.342Z,97363.90
2022-12-11T04:15:01.608Z,97378.53
2022-12-11T04:17:52.445Z,97382.20
2022-12-11T04:20:40.300Z,97383.21
2022-12-11T04:23:32.219Z,97369.66
2022-12-11T04:26:15.841Z,97374.05
2022-12-11T04:28:46.286Z,97367.33
2022-12-11T04:31:14.614Z,97369.98
2022-12-11T04:33:41.862Z,97373.42
2022-12-11T04:36:10.304Z,97377.42
2022-12-11T04:38:37.657Z,97385.15
2022-12-11T04:41:45.293Z,97396.83
2022-12-11T04:44:12.022Z,97386.50
2022-12-11T04:46:39.081Z,97391.45
2022-12-11T04:49:45.564Z,97394.73
2022-12-11T04:52:37.202Z,97399.02
2022-12-11T04:55:06.203Z,97400.27
2022-12-11T04:57:34.325Z,97405.05
2022-12-11T05:00:07.364Z,97409.11
2022-12-11T05:02:38.686Z,97416.48
2022-12-11T05:05:06.617Z,97417.73
2022-12-11T05:07:33.678Z,97425.88
2022-12-11T05:10:11.702Z,97432.22
2022-12-11T05:12:40.337Z,97436.38
2022-12-11T05:15:09.977Z,97445.23
2022-12-11T05:17:40.313Z,97462.08
2022-12-11T05:20:14.076Z,97479.55
2022-12-11T05:22:45.031Z,97488.64
2022-12-11T05:25:14.336Z,97492.40
2022-12-11T05:27:52.731Z,97504.86
2022-12-11T05:30:22.008Z,97516.73
2022-12-11T05:32:49.077Z,97524.82
2022-12-11T05:35:18.024Z,97542.11
2022-12-11T05:37:47.738Z,97565.23
2022-12-11T05:40:16.765Z,97583.59
2022-12-11T05:42:46.897Z,97595.67
2022-12-11T05:45:13.907Z,97598.68
2022-12-11T05:47:40.773Z,97592.95
2022-12-11T05:50:08.413Z,97593.74
2022-12-11T05:52:35.276Z,97597.10
2022-12-11T05:55:02.040Z,97605.17
2022-12-11T05:57:28.682Z,97618.43
2022-12-11T06:00:00.643Z,97624.59
2022-12-11T06:02:27.906Z,97633.34
2022-12-11T06:04:54.916Z,97644.96
2022-12-11T06:07:21.893Z,97658.80
2022-12-11T06:09:49.980Z,97677.58
2022-12-11T06:12:24.395Z,97686.31
2022-12-11T06:14:51.414Z,97699.41
2022-12-11T06:17:29.540Z,97719.64
2022-12-11T06:19:58.954Z,97733.71
2022-12-11T06:22:40.939Z,97738.80
2022-12-11T06:25:21.406Z,97746.70
2022-12-11T06:27:49.827Z,97748.90
2022-12-11T06:30:20.252Z,97756.39
2022-12-11T06:32:47.340Z,97768.44
2022-12-11T06:35:14.156Z,97779.58
2022-12-11T06:37:41.818Z,97790.70
2022-12-11T06:40:16.662Z,97804.05
2022-12-11T06:42:43.286Z,97814.04
2022-12-11T06:45:10.852Z,97826.84
2022-12-11T06:47:38.009Z,97841.05
2022-12-11T06:50:05.979Z,97847.73
2022-12-11T06:52:36.286Z,97859.48
2022-12-11T06:55:04.661Z,97877.00
2022-12-11T06:57:37.740Z,97886.87
2022-12-11T07:00:05.887Z,97893.04
2022-12-11T07:02:34.190Z,97904.85
2022-12-11T07:05:03.400Z,97917.73
2022-12-11T07:07:32.640Z,97929.32
2022-12-11T07:10:08.868Z,97943.80
2022-12-11T07:12:38.026Z,97956.41
2022-12-11T07:15:08.197Z,97971.83
2022-12-11T07:17:36.697Z,97980.98
2022-12-11T07:20:04.667Z,97984.36
2022-12-11T07:22:32.358Z,97998.73
2022-12-11T07:25:01.043Z,98007.04
2022-12-11T07:27:28.788Z,98009.61
2022-12-11T07:30:02.967Z,98009.77
2022-12-11T07:32:37.878Z,98012.49
2022-12-11T07:35:20.612Z,98019.64
2022-12-11T07:38:21.978Z,98032.79
2022-12-11T07:40:52.243Z,98042.28
2022-12-11T07:43:21.397Z,98047.95
2022-12-11T07:46:30.134Z,98058.09
2022-12-11T07:49:04.778Z,98072.50
2022-12-11T07:51:35.023Z,98082.91
2022-12-11T07:54:20.653Z,98102.33
2022-12-11T07:56:57.868Z,98110.02
2022-12-11T07:59:25.067Z,98120.09
2022-12-11T08:01:59.785Z,98126.29
2022-12-11T08:04:39.228Z,98134.19
2022-12-11T08:07:09.086Z,98140.27
2022-12-11T08:09:43.837Z,98145.29
2022-12-11T08:12:21.426Z,98147.52
2022-12-11T08:14:58.249Z,98149.88
2022-12-11T08:17:44.280Z,98159.63
2022-12-11T08:20:14.728Z,98162.27
2022-12-11T08:22:47.002Z,98155.55
2022-12-11T08:25:45.969Z,98157.13
2022-12-11T08:28:32.786Z,98166.16
2022-12-11T08:31:25.583Z,98173.88
2022-12-11T08:33:59.639Z,98184.43
2022-12-11T08:36:34.370Z,98199.27
2022-12-11T08:39:15.520Z,98218.23
2022-12-11T08:41:49.562Z,98229.67
2022-12-11T08:44:33.903Z,98241.61
2022-12-11T08:47:24.544Z,98247.30
2022-12-11T08:49:52.795Z,98254.80
2022-12-11T08:52:22.433Z,98256.13
2022-12-11T08:54:58.120Z,98258.03
2022-12-11T08:57:35.556Z,98264.38
2022-12-11T09:00:21.556Z,98264.60
2022-12-11T09:02:48.610Z,98265.45
2022-12-11T09:05:30.314Z,98267.07
2022-12-11T09:07:59.394Z,98275.36
2022-12-11T09:10:31.119Z,98275.98
2022-12-11T09:13:01.952Z,98271.58
2022-12-11T09:15:29.079Z,98269.13
2022-12-11T09:17:56.201Z,98269.60
2022-12-11T09:20:23.066Z,98276.05
2022-12-11T09:22:54.385Z,98279.64
2022-12-11T09:28:05.483Z,98282.08
2022-12-11T09:30:33.806Z,98293.16
2022-12-11T09:33:00.880Z,98300.84
2022-12-11T09:35:29.024Z,98304.47
2022-12-11T09:37:56.276Z,98311.62
2022-12-11T09:40:25.644Z,98310.73
2022-12-11T09:43:33.984Z,98312.48
2022-12-11T09:46:04.529Z,98321.23
2022-12-11T09:48:46.211Z,98329.16
2022-12-11T09:51:42.169Z,98335.17
2022-12-11T09:54:15.860Z,98339.10
2022-12-11T09:57:01.083Z,98343.63
2022-12-11T10:00:02.767Z,98344.25
2022-12-11T10:03:02.122Z,98341.63
2022-12-11T10:05:48.397Z,98348.36
2022-12-11T10:08:21.527Z,98346.09
2022-12-11T10:11:02.981Z,98354.00
2022-12-11T10:13:35.741Z,98356.23
2022-12-11T10:16:23.120Z,98357.41
2022-12-11T10:18:50.831Z,98360.39
2022-12-11T10:21:26.370Z,98355.16
2022-12-11T10:24:00.449Z,98359.67
2022-12-11T10:26:34.610Z,98359.69
2022-12-11T10:29:16.506Z,98360.95
2022-12-11T10:31:43.415Z,98367.70
2022-12-11T10:34:37.210Z,98372.70
2022-12-11T10:37:04.070Z,98371.46
2022-12-11T10:39:33.472Z,98369.18
2022-12-11T10:42:12.984Z,98371.86
2022-12-11T10:45:55.944Z,98372.14
2022-12-11T10:48:18.348Z,98374.79
2022-12-11T10:51:25.055Z,98369.45
2022-12-11T10:54:01.374Z,98366.98
2022-12-11T10:56:48.223Z,98370.34
2022-12-11T10:59:47.532Z,98373.19
2022-12-11T11:02:44.706Z,98368.41
2022-12-11T11:05:16.745Z,98364.83
2022-12-11T11:07:43.630Z,98363.81
2022-12-11T11:10:10.369Z,98368.77
2022-12-11T11:12:44.433Z,98378.98
2022-12-11T11:15:27.585Z,98382.95
2022-12-11T11:17:57.031Z,98390.14
2022-12-11T11:20:29.269Z,98396.02
2022-12-11T11:23:07.437Z,98395.61
2022-12-11T11:25:34.453Z,98395.42
2022-12-11T11:28:20.648Z,98398.06
2022-12-11T11:31:21.517Z,98396.23
2022-12-11T11:34:02.672Z,98397.33
2022-12-11T11:36:32.335Z,98400.98
2022-12-11T11:39:01.957Z,98396.54
2022-12-11T11:41:46.213Z,98393.62
2022-12-11T11:44:19.230Z,98398.67
2022-12-11T11:46:54.826Z,98404.56
2022-12-11T11:49:43.461Z,98411.23
2022-12-11T11:52:31.956Z,98409.33
2022-12-11T11:55:03.334Z,98410.69
2022-12-11T11:57:56.666Z,98414.67
2022-12-11T12:00:31.902Z,98417.55
2022-12-11T12:03:09.739Z,98419.64
2022-12-11T12:05:47.531Z,98420.89
2022-12-11T12:08:37.411Z,98419.14
2022-12-11T12:11:10.158Z,98417.16
2022-12-11T12:13:49.859Z,98420.20
2022-12-11T12:16:52.842Z,98420.36
2022-12-11T12:19:35.311Z,98423.73
2022-12-11T12:22:32.156Z,98426.06
2022-12-11T12:25:28.117Z,98422.67
2022-12-11T12:28:23.619Z,98422.64
2022-12-11T12:31:12.778Z,98421.16
2022-12-11T12:33:52.597Z,98422.60
2022-12-11T12:36:31.695Z,98422.70
2022-12-11T12:39:04.154Z,98421.85
2022-12-11T12:41:52.550Z,98425.09
2022-12-11T12:44:23.572Z,98429.86
2022-12-11T12:47:02.957Z,98433.62
2022-12-11T12:49:35.297Z,98435.61
2022-12-11T12:52:04.771Z,98436.16
2022-12-11T12:54:33.512Z,98437.36
2022-12-11T12:57:03.751Z,98439.52
2022-12-11T12:59:31.270Z,98441.20
2022-12-11T13:02:01.812Z,98446.86
2022-12-11T13:04:57.617Z,98447.25
2022-12-11T13:07:30.612Z,98443.77
2022-12-11T13:10:22.367Z,98451.73
2022-12-11T13:12:49.590Z,98459.66
2022-12-11T13:15:36.760Z,98465.20
2022-12-11T13:18:25.005Z,98468.71
2022-12-11T13:20:52.045Z,98470.46
2022-12-11T13:23:27.507Z,98467.73
2022-12-11T13:26:00.244Z,98469.98
2022-12-11T13:28:39.358Z,98476.21
2022-12-11T13:31:27.662Z,98475.48
2022-12-11T13:33:57.550Z,98482.17
2022-12-11T13:36:32.172Z,98494.08
2022-12-11T13:39:05.048Z,98498.67
2022-12-11T13:41:36.406Z,98498.53
2022-12-11T13:44:06.504Z,98494.23
2022-12-11T13:46:36.921Z,98496.80
2022-12-11T13:49:08.027Z,98510.84
2022-12-11T13:51:36.528Z,98515.80
2022-12-11T13:54:06.886Z,98515.14
2022-12-11T13:56:33.758Z,98514.60
2022-12-11T13:59:01.074Z,98513.83
2022-12-11T14:01:32.327Z,98514.70
2022-12-11T14:04:04.296Z,98517.08
2022-12-11T14:06:34.003Z,98517.70
2022-12-11T14:09:02.299Z,98514.86
2022-12-11T14:11:39.715Z,98512.64
2022-12-11T14:14:17.492Z,98515.23
2022-12-11T14:16:51.020Z,98517.06
2022-12-11T14:19:21.081Z,98519.92
2022-12-11T14:22:03.478Z,98528.36
2022-12-11T14:24:31.723Z,98533.41
2022-12-11T14:27:01.637Z,98537.09
2022-12-11T14:29:31.644Z,98537.85
2022-12-11T14:32:05.293Z,98537.43
2022-12-11T14:34:42.228Z,98538.63
2022-12-11T14:37:11.853Z,98540.37
2022-12-11T14:39:49.815Z,98546.59
2022-12-11T14:42:24.111Z,98551.13
2022-12-11T14:45:07.399Z,98556.41
2022-12-11T14:47:40.636Z,98564.34
2022-12-11T14:50:17.875Z,98575.02
2022-12-11T14:52:53.831Z,98586.00
2022-12-11T14:55:29.227Z,98590.50
2022-12-11T14:58:14.237Z,98594.29
2022-12-11T15:00:44.116Z,98596.16
2022-12-11T15:03:16.890Z,98597.33
2022-12-11T15:05:54.765Z,98596.16
2022-12-11T15:08:25.942Z,98599.44
2022-12-11T15:11:04.173Z,98600.35
2022-12-11T15:13:34.613Z,98599.72
2022-12-11T15:16:03.688Z,98591.44
2022-12-11T15:18:39.930Z,98588.46
2022-12-11T15:21:10.340Z,98591.35
2022-12-11T15:23:59.345Z,98593.83
2022-12-11T15:26:46.115Z,98603.77
2022-12-11T15:29:33.773Z,98608.12
2022-12-11T15:32:02.243Z,98606.48
2022-12-11T15:34:45.467Z,98607.80
2022-12-11T15:37:23.544Z,98611.77
2022-12-11T15:39:51.049Z,98611.70
2022-12-11T15:42:41.153Z,98612.23
2022-12-11T15:45:16.366Z,98612.33
2022-12-11T15:47:44.158Z,98611.02
2022-12-11T15:50:26.546Z,98608.12
2022-12-11T15:52:57.179Z,98608.17
2022-12-11T15:55:26.930Z,98609.00
2022-12-11T15:57:57.547Z,98608.36
2022-12-11T16:00:26.975Z,98605.27
2022-12-11T16:02:56.353Z,98607.02
2022-12-11T16:05:25.524Z,98603.48
2022-12-11T16:07:54.065Z,98604.42
2022-12-11T16:10:21.667Z,98616.10
2022-12-11T16:12:48.696Z,98622.09
2022-12-11T16:15:23.130Z,98618.92
2022-12-11T16:18:05.650Z,98614.74
2022-12-11T16:20:34.653Z,98616.99
2022-12-11T16:23:01.579Z,98615.38
2022-12-11T16:25:28.248Z,98618.35
2022-12-11T16:27:56.720Z,98618.68
2022-12-11T16:30:25.873Z,98620.64
2022-12-11T16:32:55.419Z,98621.23
2022-12-11T16:35:24.386Z,98624.43
2022-12-11T16:37:54.884Z,98626.89
2022-12-11T16:40:25.278Z,98620.60
2022-12-11T16:42:58.111Z,98620.77
2022-12-11T16:45:26.447Z,98621.45
2022-12-11T16:47:54.423Z,98618.31
2022-12-11T16:50:23.581Z,98619.32
2022-12-11T16:52:52.868Z,98617.84
2022-12-11T16:55:27.063Z,98616.96
2022-12-11T16:57:56.460Z,98615.94
2022-12-11T17:00:23.462Z,98615.20
2022-12-11T17:02:51.058Z,98619.34
2022-12-11T17:05:19.113Z,98621.68
2022-12-11T17:07:46.172Z,98617.75
2022-12-11T17:10:13.668Z,98623.05
2022-12-11T17:12:40.941Z,98628.10
2022-12-11T17:15:11.100Z,98636.56
2022-12-11T17:17:38.227Z,98636.86
2022-12-11T17:20:05.667Z,98634.46
2022-12-11T17:22:32.940Z,98631.48
2022-12-11T17:25:00.160Z,98633.28
2022-12-11T17:27:55.351Z,98636.14
2022-12-11T17:30:26.867Z,98641.91
2022-12-11T17:32:54.221Z,98648.69
2022-12-11T17:35:39.398Z,98656.66
2022-12-11T17:38:11.397Z,98655.27
2022-12-11T17:40:41.717Z,98654.44
2022-12-11T17:43:15.704Z,98653.90
2022-12-11T17:45:52.225Z,98646.04
2022-12-11T17:48:24.333Z,98651.02
2022-12-11T17:50:54.241Z,98655.55
2022-12-11T17:53:23.919Z,98662.86
2022-12-11T17:55:51.530Z,98664.73
2022-12-11T17:58:21.584Z,98667.69
2022-12-11T18:00:52.187Z,98669.94
2022-12-11T18:03:22.151Z,98667.31
2022-12-11T18:05:52.936Z,98663.38
2022-12-11T18:08:36.391Z,98662.70
2022-12-11T18:11:21.255Z,98666.04
2022-12-11T18:14:16.951Z,98658.67
2022-12-11T18:17:22.000Z,98657.98
2022-12-11T18:19:55.265Z,98658.00
2022-12-11T18:22:24.020Z,98657.25
2022-12-11T18:25:00.980Z,98652.77
2022-12-11T18:27:50.862Z,98651.83
2022-12-11T18:30:17.832Z,98655.16
2022-12-11T18:32:45.018Z,98662.40
2022-12-11T18:35:14.584Z,98664.30
2022-12-11T18:37:41.700Z,98667.73
2022-12-11T18:40:11.749Z,98671.38
2022-12-11T18:42:43.050Z,98678.17
2022-12-11T18:45:10.552Z,98685.05
2022-12-11T18:47:38.513Z,98682.77
2022-12-11T18:50:07.915Z,98680.67
2022-12-11T18:52:35.336Z,98684.83
2022-12-11T18:55:02.140Z,98685.61
2022-12-11T18:57:29.106Z,98687.85
2022-12-11T18:59:56.025Z,98693.99
2022-12-11T19:02:23.030Z,98695.11
2022-12-11T19:04:49.829Z,98695.41
2022-12-11T19:07:24.095Z,98698.11
2022-12-11T19:09:55.855Z,98699.45
2022-12-11T19:12:22.766Z,98696.45
2022-12-11T19:14:49.691Z,98696.48
2022-12-11T19:17:16.669Z,98699.69
2022-12-11T19:19:45.602Z,98700.16
2022-12-11T19:22:14.473Z,98703.23
2022-12-11T19:24:41.393Z,98705.20
2022-12-11T19:27:13.234Z,98709.71
2022-12-11T19:29:40.988Z,98712.98
2022-12-11T19:32:08.190Z,98723.32
2022-12-11T19:34:38.007Z,98727.52
2022-12-11T19:37:05.288Z,98732.02
2022-12-11T19:39:32.288Z,98735.33
2022-12-11T19:41:59.450Z,98738.10
2022-12-11T19:44:26.513Z,98738.92
2022-12-11T19:46:53.837Z,98738.95
2022-12-11T19:49:21.735Z,98738.20
2022-12-11T19:51:48.995Z,98736.67
2022-12-11T19:58:05.255Z,98740.08
2022-12-11T20:00:29.345Z,98735.30
2022-12-11T20:03:10.738Z,98738.35
2022-12-11T20:05:56.310Z,98740.14
2022-12-11T20:08:46.821Z,98741.71
2022-12-11T20:11:29.322Z,98740.00
2022-12-11T20:14:04.797Z,98739.28
2022-12-11T20:20:29.360Z,98734.73
2022-12-11T20:24:00.035Z,98740.08
2022-12-11T20:54:47.586Z,98759.05
2022-12-11T20:57:16.092Z,98756.75
2022-12-11T20:59:44.120Z,98757.20
2022-12-11T21:02:12.152Z,98760.20
2022-12-11T21:04:43.285Z,98762.13
2022-12-11T21:07:16.658Z,98763.98
2022-12-11T21:09:43.577Z,98762.45
2022-12-11T21:12:12.876Z,98762.19
2022-12-11T21:14:39.957Z,98765.83
2022-12-11T21:17:06.686Z,98767.90
2022-12-11T21:19:33.418Z,98774.45
2022-12-11T21:22:07.713Z,98774.23
2022-12-11T21:24:34.476Z,98771.91
2022-12-11T21:27:01.203Z,98774.13
2022-12-11T21:29:28.797Z,98777.10
2022-12-11T21:31:56.570Z,98781.83
2022-12-11T21:34:25.715Z,98781.67
2022-12-11T21:36:56.021Z,98782.79
2022-12-11T21:39:28.028Z,98787.25
2022-12-11T21:41:57.453Z,98789.43
2022-12-11T21:47:11.237Z,98790.94
2022-12-11T21:49:38.259Z,98791.05
2022-12-11T21:52:05.381Z,98786.55
2022-12-11T21:54:32.130Z,98785.73
2022-12-11T21:56:59.051Z,98786.21
2022-12-11T21:59:27.275Z,98787.70
2022-12-11T22:01:55.810Z,98788.71
2022-12-11T22:04:22.903Z,98792.83
2022-12-11T22:06:49.746Z,98800.76
2022-12-11T22:09:17.520Z,98804.52
2022-12-11T22:11:45.802Z,98804.16
2022-12-11T22:14:15.323Z,98806.77
2022-12-11T22:16:43.157Z,98808.09
2022-12-11T22:19:14.934Z,98807.32
2022-12-11T22:21:43.986Z,98810.09
2022-12-11T22:24:11.208Z,98809.91
2022-12-11T22:26:38.631Z,98815.95
2022-12-11T22:29:06.007Z,98818.65
2022-12-11T22:31:33.171Z,98815.96
2022-12-11T22:34:00.095Z,98810.74
2022-12-11T22:36:27.402Z,98809.36
2022-12-11T22:38:54.683Z,98810.20
2022-12-11T22:41:26.248Z,98809.47
2022-12-11T22:43:54.083Z,98810.95
2022-12-11T22:46:24.140Z,98810.65
2022-12-11T22:48:51.797Z,98806.33
2022-12-11T22:51:19.044Z,98805.97
2022-12-11T22:53:46.168Z,98803.31
2022-12-11T22:56:13.767Z,98804.95
2022-12-11T22:58:41.941Z,98803.38
2022-12-11T23:01:13.362Z,98806.55
2022-12-11T23:03:40.347Z,98809.81
2022-12-11T23:06:10.644Z,98812.13
2022-12-11T23:08:39.953Z,98813.27
2022-12-11T23:11:20.597Z,98807.52
2022-12-11T23:13:47.533Z,98810.45
2022-12-11T23:16:14.853Z,98823.19
2022-12-11T23:18:42.370Z,98826.79
2022-12-11T23:21:11.812Z,98827.23
2022-12-11T23:23:39.494Z,98829.16
2022-12-11T23:26:08.754Z,98825.58
2022-12-11T23:28:36.723Z,98824.98
2022-12-11T23:31:03.709Z,98819.79
2022-12-11T23:33:30.537Z,98820.22
2022-12-11T23:35:58.211Z,98822.67
2022-12-11T23:38:25.535Z,98827.23
2022-12-11T23:40:52.927Z,98829.41
2022-12-11T23:43:19.610Z,98829.05
2022-12-11T23:45:46.378Z,98829.83
2022-12-11T23:48:13.500Z,98830.14
2022-12-11T23:50:49.691Z,98828.03
2022-12-11T23:53:17.950Z,98824.65
2022-12-11T23:55:54.946Z,98823.73
2022-12-11T23:58:29.215Z,98824.23
